sensor_id;sensor_type;location;lat;lon;timestamp;P1;durP1;ratioP1;P2;durP2;ratioP2
14789;SDS011;7486;51.010;10.366;2023-03-01T00:00:02;17.40;;;13.80;;
14789;SDS011;7486;51.010;10.366;2023-03-01T00:02:55;20.17;;;13.73;;
14789;SDS011;7486;51.010;10.366;2023-03-01T00:05:44;19.53;;;14.17;;
14789;SDS011;7486;51.010;10.366;2023-03-01T00:08:30;19.33;;;14.73;;
14789;SDS011;7486;51.010;10.366;2023-03-01T00:11:17;17.37;;;13.03;;
14789;SDS011;7486;51.010;10.366;2023-03-01T00:14:07;19.43;;;14.00;;
14789;SDS011;7486;51.010;10.366;2023-03-01T00:16:53;18.73;;;13.73;;
14789;SDS011;7486;51.010;10.366;2023-03-01T00:19:39;19.87;;;14.10;;
14789;SDS011;7486;51.010;10.366;2023-03-01T00:22:26;18.87;;;12.90;;
14789;SDS011;7486;51.010;10.366;2023-03-01T00:25:11;17.47;;;13.00;;
14789;SDS011;7486;51.010;10.366;2023-03-01T00:27:57;17.53;;;13.43;;
14789;SDS011;7486;51.010;10.366;2023-03-01T00:30:42;19.83;;;13.57;;
14789;SDS011;7486;51.010;10.366;2023-03-01T00:33:28;16.10;;;12.87;;
14789;SDS011;7486;51.010;10.366;2023-03-01T00:36:14;17.53;;;12.77;;
14789;SDS011;7486;51.010;10.366;2023-03-01T00:39:01;18.90;;;13.40;;
14789;SDS011;7486;51.010;10.366;2023-03-01T00:41:49;18.97;;;13.13;;
14789;SDS011;7486;51.010;10.366;2023-03-01T00:44:34;17.17;;;13.17;;
14789;SDS011;7486;51.010;10.366;2023-03-01T00:47:19;18.33;;;13.23;;
14789;SDS011;7486;51.010;10.366;2023-03-01T00:50:05;18.13;;;13.47;;
14789;SDS011;7486;51.010;10.366;2023-03-01T00:52:54;18.93;;;12.83;;
14789;SDS011;7486;51.010;10.366;2023-03-01T00:55:41;17.43;;;12.73;;
14789;SDS011;7486;51.010;10.366;2023-03-01T00:58:26;19.33;;;13.80;;
14789;SDS011;7486;51.010;10.366;2023-03-01T01:01:16;19.27;;;13.20;;
14789;SDS011;7486;51.010;10.366;2023-03-01T01:04:04;21.00;;;13.73;;
14789;SDS011;7486;51.010;10.366;2023-03-01T01:06:52;19.37;;;13.53;;
14789;SDS011;7486;51.010;10.366;2023-03-01T01:09:37;19.50;;;14.27;;
14789;SDS011;7486;51.010;10.366;2023-03-01T01:12:23;20.90;;;13.13;;
14789;SDS011;7486;51.010;10.366;2023-03-01T01:15:08;19.83;;;13.70;;
14789;SDS011;7486;51.010;10.366;2023-03-01T01:17:54;19.60;;;14.03;;
14789;SDS011;7486;51.010;10.366;2023-03-01T01:20:40;19.63;;;13.47;;
14789;SDS011;7486;51.010;10.366;2023-03-01T01:23:25;21.23;;;14.37;;
14789;SDS011;7486;51.010;10.366;2023-03-01T01:26:12;19.43;;;14.67;;
14789;SDS011;7486;51.010;10.366;2023-03-01T01:29:01;23.40;;;14.63;;
14789;SDS011;7486;51.010;10.366;2023-03-01T01:31:48;19.90;;;14.43;;
14789;SDS011;7486;51.010;10.366;2023-03-01T01:34:33;20.70;;;14.60;;
14789;SDS011;7486;51.010;10.366;2023-03-01T01:37:19;22.33;;;14.60;;
14789;SDS011;7486;51.010;10.366;2023-03-01T01:40:04;17.97;;;13.97;;
14789;SDS011;7486;51.010;10.366;2023-03-01T01:42:50;18.93;;;14.10;;
14789;SDS011;7486;51.010;10.366;2023-03-01T01:45:36;19.67;;;13.80;;
14789;SDS011;7486;51.010;10.366;2023-03-01T01:48:22;22.73;;;15.13;;
14789;SDS011;7486;51.010;10.366;2023-03-01T01:51:14;24.83;;;15.47;;
14789;SDS011;7486;51.010;10.366;2023-03-01T01:54:24;22.10;;;14.20;;
14789;SDS011;7486;51.010;10.366;2023-03-01T01:57:24;19.50;;;14.47;;
14789;SDS011;7486;51.010;10.366;2023-03-01T02:00:22;20.03;;;14.73;;
14789;SDS011;7486;51.010;10.366;2023-03-01T02:03:11;19.60;;;14.37;;
14789;SDS011;7486;51.010;10.366;2023-03-01T02:09:07;19.40;;;14.40;;
14789;SDS011;7486;51.010;10.366;2023-03-01T02:11:57;18.40;;;13.47;;
14789;SDS011;7486;51.010;10.366;2023-03-01T02:14:44;19.47;;;13.73;;
14789;SDS011;7486;51.010;10.366;2023-03-01T02:17:30;22.60;;;14.33;;
14789;SDS011;7486;51.010;10.366;2023-03-01T02:20:18;20.90;;;14.60;;
14789;SDS011;7486;51.010;10.366;2023-03-01T02:23:07;20.70;;;15.10;;
14789;SDS011;7486;51.010;10.366;2023-03-01T02:25:58;20.97;;;15.40;;
14789;SDS011;7486;51.010;10.366;2023-03-01T02:28:46;18.47;;;13.93;;
14789;SDS011;7486;51.010;10.366;2023-03-01T02:31:31;22.83;;;15.23;;
14789;SDS011;7486;51.010;10.366;2023-03-01T02:34:18;21.50;;;15.07;;
14789;SDS011;7486;51.010;10.366;2023-03-01T02:37:11;22.17;;;14.77;;
14789;SDS011;7486;51.010;10.366;2023-03-01T02:39:59;23.70;;;15.30;;
14789;SDS011;7486;51.010;10.366;2023-03-01T02:42:54;20.67;;;14.90;;
14789;SDS011;7486;51.010;10.366;2023-03-01T02:45:48;19.37;;;13.57;;
14789;SDS011;7486;51.010;10.366;2023-03-01T02:48:40;20.57;;;14.90;;
14789;SDS011;7486;51.010;10.366;2023-03-01T02:51:31;19.70;;;14.07;;
14789;SDS011;7486;51.010;10.366;2023-03-01T02:57:53;21.10;;;14.17;;
14789;SDS011;7486;51.010;10.366;2023-03-01T03:00:40;20.20;;;14.87;;
14789;SDS011;7486;51.010;10.366;2023-03-01T03:03:27;23.90;;;15.23;;
14789;SDS011;7486;51.010;10.366;2023-03-01T03:06:13;19.67;;;14.03;;
14789;SDS011;7486;51.010;10.366;2023-03-01T03:08:59;20.30;;;14.53;;
14789;SDS011;7486;51.010;10.366;2023-03-01T03:11:45;20.10;;;13.80;;
14789;SDS011;7486;51.010;10.366;2023-03-01T03:14:30;20.27;;;14.00;;
14789;SDS011;7486;51.010;10.366;2023-03-01T03:17:16;19.83;;;14.70;;
14789;SDS011;7486;51.010;10.366;2023-03-01T03:20:02;19.67;;;14.37;;
14789;SDS011;7486;51.010;10.366;2023-03-01T03:22:50;20.00;;;13.90;;
14789;SDS011;7486;51.010;10.366;2023-03-01T03:25:37;20.50;;;14.00;;
14789;SDS011;7486;51.010;10.366;2023-03-01T03:28:23;19.33;;;13.80;;
14789;SDS011;7486;51.010;10.366;2023-03-01T03:31:08;21.53;;;15.20;;
14789;SDS011;7486;51.010;10.366;2023-03-01T03:33:54;24.17;;;15.50;;
14789;SDS011;7486;51.010;10.366;2023-03-01T03:36:39;22.33;;;15.67;;
14789;SDS011;7486;51.010;10.366;2023-03-01T03:39:25;20.37;;;15.10;;
14789;SDS011;7486;51.010;10.366;2023-03-01T03:42:11;22.67;;;15.23;;
14789;SDS011;7486;51.010;10.366;2023-03-01T03:44:56;22.37;;;14.87;;
14789;SDS011;7486;51.010;10.366;2023-03-01T03:47:42;23.10;;;15.17;;
14789;SDS011;7486;51.010;10.366;2023-03-01T03:50:28;21.00;;;15.73;;
14789;SDS011;7486;51.010;10.366;2023-03-01T03:53:14;23.00;;;15.20;;
14789;SDS011;7486;51.010;10.366;2023-03-01T03:55:59;23.10;;;15.50;;
14789;SDS011;7486;51.010;10.366;2023-03-01T03:58:44;22.07;;;15.63;;
14789;SDS011;7486;51.010;10.366;2023-03-01T04:01:30;21.63;;;15.53;;
14789;SDS011;7486;51.010;10.366;2023-03-01T04:04:15;20.93;;;15.20;;
14789;SDS011;7486;51.010;10.366;2023-03-01T04:07:00;21.47;;;15.77;;
14789;SDS011;7486;51.010;10.366;2023-03-01T04:09:46;21.67;;;14.70;;
14789;SDS011;7486;51.010;10.366;2023-03-01T04:12:32;24.80;;;15.50;;
14789;SDS011;7486;51.010;10.366;2023-03-01T04:15:18;23.83;;;15.63;;
14789;SDS011;7486;51.010;10.366;2023-03-01T04:18:04;23.87;;;15.47;;
14789;SDS011;7486;51.010;10.366;2023-03-01T04:20:50;20.33;;;14.03;;
14789;SDS011;7486;51.010;10.366;2023-03-01T04:23:35;19.10;;;13.83;;
14789;SDS011;7486;51.010;10.366;2023-03-01T04:26:21;22.30;;;14.07;;
14789;SDS011;7486;51.010;10.366;2023-03-01T04:29:06;18.73;;;13.93;;
14789;SDS011;7486;51.010;10.366;2023-03-01T04:31:52;20.83;;;14.20;;
14789;SDS011;7486;51.010;10.366;2023-03-01T04:34:37;21.73;;;13.70;;
14789;SDS011;7486;51.010;10.366;2023-03-01T04:37:23;21.37;;;13.80;;
14789;SDS011;7486;51.010;10.366;2023-03-01T04:40:08;23.30;;;13.87;;
14789;SDS011;7486;51.010;10.366;2023-03-01T04:42:54;21.27;;;14.30;;
14789;SDS011;7486;51.010;10.366;2023-03-01T04:45:40;21.20;;;13.43;;
14789;SDS011;7486;51.010;10.366;2023-03-01T04:48:25;20.37;;;13.57;;
14789;SDS011;7486;51.010;10.366;2023-03-01T04:51:10;20.33;;;13.03;;
14789;SDS011;7486;51.010;10.366;2023-03-01T04:53:57;21.20;;;13.77;;
14789;SDS011;7486;51.010;10.366;2023-03-01T04:56:42;19.33;;;13.23;;
14789;SDS011;7486;51.010;10.366;2023-03-01T04:59:27;19.47;;;12.67;;
14789;SDS011;7486;51.010;10.366;2023-03-01T05:02:13;20.67;;;13.57;;
14789;SDS011;7486;51.010;10.366;2023-03-01T05:04:59;19.57;;;13.13;;
14789;SDS011;7486;51.010;10.366;2023-03-01T05:07:45;19.53;;;12.90;;
14789;SDS011;7486;51.010;10.366;2023-03-01T05:10:30;18.80;;;12.50;;
14789;SDS011;7486;51.010;10.366;2023-03-01T05:13:18;19.93;;;12.63;;
14789;SDS011;7486;51.010;10.366;2023-03-01T05:16:05;19.50;;;12.70;;
14789;SDS011;7486;51.010;10.366;2023-03-01T05:18:52;18.90;;;12.90;;
14789;SDS011;7486;51.010;10.366;2023-03-01T05:21:38;18.97;;;12.73;;
14789;SDS011;7486;51.010;10.366;2023-03-01T05:24:24;18.50;;;12.67;;
14789;SDS011;7486;51.010;10.366;2023-03-01T05:27:09;18.00;;;13.13;;
14789;SDS011;7486;51.010;10.366;2023-03-01T05:29:55;19.07;;;12.37;;
14789;SDS011;7486;51.010;10.366;2023-03-01T05:32:42;18.10;;;13.43;;
14789;SDS011;7486;51.010;10.366;2023-03-01T05:35:29;18.20;;;12.73;;
14789;SDS011;7486;51.010;10.366;2023-03-01T05:38:18;18.30;;;12.80;;
14789;SDS011;7486;51.010;10.366;2023-03-01T05:41:03;19.83;;;13.37;;
14789;SDS011;7486;51.010;10.366;2023-03-01T05:43:48;18.27;;;13.13;;
14789;SDS011;7486;51.010;10.366;2023-03-01T05:46:34;18.07;;;12.13;;
14789;SDS011;7486;51.010;10.366;2023-03-01T05:49:19;18.73;;;12.97;;
14789;SDS011;7486;51.010;10.366;2023-03-01T05:52:05;17.57;;;12.47;;
14789;SDS011;7486;51.010;10.366;2023-03-01T05:54:50;19.97;;;12.50;;
14789;SDS011;7486;51.010;10.366;2023-03-01T05:57:36;18.17;;;12.13;;
14789;SDS011;7486;51.010;10.366;2023-03-01T06:00:21;17.87;;;12.07;;
14789;SDS011;7486;51.010;10.366;2023-03-01T06:03:06;21.17;;;12.97;;
14789;SDS011;7486;51.010;10.366;2023-03-01T06:05:56;19.33;;;11.47;;
14789;SDS011;7486;51.010;10.366;2023-03-01T06:08:42;16.33;;;11.57;;
14789;SDS011;7486;51.010;10.366;2023-03-01T06:11:28;19.47;;;12.23;;
14789;SDS011;7486;51.010;10.366;2023-03-01T06:14:13;16.20;;;11.67;;
14789;SDS011;7486;51.010;10.366;2023-03-01T06:16:58;17.70;;;11.00;;
14789;SDS011;7486;51.010;10.366;2023-03-01T06:19:44;17.30;;;11.37;;
14789;SDS011;7486;51.010;10.366;2023-03-01T06:22:31;14.90;;;11.03;;
14789;SDS011;7486;51.010;10.366;2023-03-01T06:25:17;18.13;;;11.73;;
14789;SDS011;7486;51.010;10.366;2023-03-01T06:28:04;17.83;;;11.50;;
14789;SDS011;7486;51.010;10.366;2023-03-01T06:30:50;19.87;;;12.07;;
14789;SDS011;7486;51.010;10.366;2023-03-01T06:33:36;15.13;;;11.13;;
14789;SDS011;7486;51.010;10.366;2023-03-01T06:36:21;18.20;;;11.40;;
14789;SDS011;7486;51.010;10.366;2023-03-01T06:39:06;18.40;;;11.90;;
14789;SDS011;7486;51.010;10.366;2023-03-01T06:41:51;16.43;;;11.47;;
14789;SDS011;7486;51.010;10.366;2023-03-01T06:44:39;20.93;;;13.90;;
14789;SDS011;7486;51.010;10.366;2023-03-01T06:47:24;18.67;;;13.93;;
14789;SDS011;7486;51.010;10.366;2023-03-01T06:50:10;21.87;;;14.40;;
14789;SDS011;7486;51.010;10.366;2023-03-01T06:52:56;22.53;;;15.00;;
14789;SDS011;7486;51.010;10.366;2023-03-01T06:55:42;19.47;;;14.03;;
14789;SDS011;7486;51.010;10.366;2023-03-01T06:58:28;18.50;;;13.17;;
14789;SDS011;7486;51.010;10.366;2023-03-01T07:01:13;20.47;;;14.00;;
14789;SDS011;7486;51.010;10.366;2023-03-01T07:03:58;17.87;;;12.33;;
14789;SDS011;7486;51.010;10.366;2023-03-01T07:06:44;17.83;;;11.83;;
14789;SDS011;7486;51.010;10.366;2023-03-01T07:09:29;16.10;;;12.10;;
14789;SDS011;7486;51.010;10.366;2023-03-01T07:12:15;19.53;;;11.83;;
14789;SDS011;7486;51.010;10.366;2023-03-01T07:15:00;14.97;;;11.17;;
14789;SDS011;7486;51.010;10.366;2023-03-01T07:17:45;15.63;;;11.50;;
14789;SDS011;7486;51.010;10.366;2023-03-01T07:20:31;15.43;;;11.20;;
14789;SDS011;7486;51.010;10.366;2023-03-01T07:23:16;15.43;;;11.07;;
14789;SDS011;7486;51.010;10.366;2023-03-01T07:26:02;15.87;;;11.47;;
14789;SDS011;7486;51.010;10.366;2023-03-01T07:28:47;14.23;;;10.57;;
14789;SDS011;7486;51.010;10.366;2023-03-01T07:31:32;14.90;;;10.50;;
14789;SDS011;7486;51.010;10.366;2023-03-01T07:34:18;15.13;;;10.47;;
14789;SDS011;7486;51.010;10.366;2023-03-01T07:37:03;14.30;;;10.53;;
14789;SDS011;7486;51.010;10.366;2023-03-01T07:39:49;14.60;;;9.57;;
14789;SDS011;7486;51.010;10.366;2023-03-01T07:42:34;14.47;;;10.13;;
14789;SDS011;7486;51.010;10.366;2023-03-01T07:45:19;15.73;;;10.60;;
14789;SDS011;7486;51.010;10.366;2023-03-01T07:48:05;14.43;;;9.70;;
14789;SDS011;7486;51.010;10.366;2023-03-01T07:50:50;16.87;;;10.10;;
14789;SDS011;7486;51.010;10.366;2023-03-01T07:53:36;15.87;;;11.50;;
14789;SDS011;7486;51.010;10.366;2023-03-01T07:56:21;12.63;;;10.70;;
14789;SDS011;7486;51.010;10.366;2023-03-01T07:59:07;16.40;;;10.87;;
14789;SDS011;7486;51.010;10.366;2023-03-01T08:01:52;16.93;;;11.53;;
14789;SDS011;7486;51.010;10.366;2023-03-01T08:04:38;16.43;;;11.47;;
14789;SDS011;7486;51.010;10.366;2023-03-01T08:07:23;17.90;;;11.90;;
14789;SDS011;7486;51.010;10.366;2023-03-01T08:10:08;14.93;;;11.50;;
14789;SDS011;7486;51.010;10.366;2023-03-01T08:12:55;15.47;;;11.60;;
14789;SDS011;7486;51.010;10.366;2023-03-01T08:15:40;15.53;;;11.30;;
14789;SDS011;7486;51.010;10.366;2023-03-01T08:18:25;17.70;;;11.87;;
14789;SDS011;7486;51.010;10.366;2023-03-01T08:21:13;16.90;;;11.13;;
14789;SDS011;7486;51.010;10.366;2023-03-01T08:23:59;13.90;;;10.33;;
14789;SDS011;7486;51.010;10.366;2023-03-01T08:26:46;13.07;;;9.70;;
14789;SDS011;7486;51.010;10.366;2023-03-01T08:29:31;13.57;;;9.67;;
14789;SDS011;7486;51.010;10.366;2023-03-01T08:32:17;12.97;;;9.10;;
14789;SDS011;7486;51.010;10.366;2023-03-01T08:35:03;14.17;;;9.50;;
14789;SDS011;7486;51.010;10.366;2023-03-01T08:37:49;14.03;;;9.60;;
14789;SDS011;7486;51.010;10.366;2023-03-01T08:40:34;13.10;;;9.20;;
14789;SDS011;7486;51.010;10.366;2023-03-01T08:43:20;12.60;;;8.97;;
14789;SDS011;7486;51.010;10.366;2023-03-01T08:46:07;13.80;;;10.03;;
14789;SDS011;7486;51.010;10.366;2023-03-01T08:48:52;12.60;;;10.00;;
14789;SDS011;7486;51.010;10.366;2023-03-01T08:51:38;13.03;;;9.00;;
14789;SDS011;7486;51.010;10.366;2023-03-01T08:54:24;13.73;;;9.73;;
14789;SDS011;7486;51.010;10.366;2023-03-01T08:57:09;13.10;;;8.93;;
14789;SDS011;7486;51.010;10.366;2023-03-01T08:59:54;12.77;;;9.73;;
14789;SDS011;7486;51.010;10.366;2023-03-01T09:02:40;12.03;;;9.20;;
14789;SDS011;7486;51.010;10.366;2023-03-01T09:05:25;12.50;;;9.10;;
14789;SDS011;7486;51.010;10.366;2023-03-01T09:08:11;14.43;;;9.60;;
14789;SDS011;7486;51.010;10.366;2023-03-01T09:10:57;12.87;;;9.43;;
14789;SDS011;7486;51.010;10.366;2023-03-01T09:13:43;14.10;;;10.07;;
14789;SDS011;7486;51.010;10.366;2023-03-01T09:16:29;13.60;;;9.77;;
14789;SDS011;7486;51.010;10.366;2023-03-01T09:19:15;13.37;;;9.83;;
14789;SDS011;7486;51.010;10.366;2023-03-01T09:22:02;13.90;;;9.33;;
14789;SDS011;7486;51.010;10.366;2023-03-01T09:24:48;12.87;;;8.73;;
14789;SDS011;7486;51.010;10.366;2023-03-01T09:27:34;13.23;;;9.60;;
14789;SDS011;7486;51.010;10.366;2023-03-01T09:30:20;13.97;;;9.63;;
14789;SDS011;7486;51.010;10.366;2023-03-01T09:33:05;11.70;;;9.80;;
14789;SDS011;7486;51.010;10.366;2023-03-01T09:35:55;14.43;;;10.30;;
14789;SDS011;7486;51.010;10.366;2023-03-01T09:38:44;14.23;;;10.20;;
14789;SDS011;7486;51.010;10.366;2023-03-01T09:44:42;14.50;;;10.00;;
14789;SDS011;7486;51.010;10.366;2023-03-01T09:47:33;12.50;;;9.83;;
14789;SDS011;7486;51.010;10.366;2023-03-01T09:50:21;12.47;;;9.00;;
14789;SDS011;7486;51.010;10.366;2023-03-01T09:53:15;13.10;;;9.20;;
14789;SDS011;7486;51.010;10.366;2023-03-01T09:56:05;15.03;;;9.83;;
14789;SDS011;7486;51.010;10.366;2023-03-01T10:08:29;16.10;;;11.13;;
14789;SDS011;7486;51.010;10.366;2023-03-01T10:11:23;15.23;;;10.70;;
14789;SDS011;7486;51.010;10.366;2023-03-01T10:14:27;14.00;;;10.97;;
14789;SDS011;7486;51.010;10.366;2023-03-01T10:21:13;13.87;;;8.60;;
14789;SDS011;7486;51.010;10.366;2023-03-01T10:24:14;11.87;;;9.30;;
14789;SDS011;7486;51.010;10.366;2023-03-01T10:27:06;13.80;;;10.03;;
14789;SDS011;7486;51.010;10.366;2023-03-01T10:33:26;13.03;;;9.77;;
14789;SDS011;7486;51.010;10.366;2023-03-01T10:36:16;13.23;;;9.70;;
14789;SDS011;7486;51.010;10.366;2023-03-01T10:39:01;13.77;;;9.80;;
14789;SDS011;7486;51.010;10.366;2023-03-01T10:44:46;13.83;;;10.60;;
14789;SDS011;7486;51.010;10.366;2023-03-01T10:47:33;13.73;;;9.93;;
14789;SDS011;7486;51.010;10.366;2023-03-01T10:50:19;14.43;;;10.13;;
14789;SDS011;7486;51.010;10.366;2023-03-01T10:53:26;14.27;;;9.97;;
14789;SDS011;7486;51.010;10.366;2023-03-01T10:56:13;11.97;;;9.03;;
14789;SDS011;7486;51.010;10.366;2023-03-01T10:59:03;14.07;;;10.60;;
14789;SDS011;7486;51.010;10.366;2023-03-01T11:02:00;15.10;;;9.97;;
14789;SDS011;7486;51.010;10.366;2023-03-01T11:07:58;13.00;;;9.60;;
14789;SDS011;7486;51.010;10.366;2023-03-01T11:10:44;14.87;;;10.70;;
14789;SDS011;7486;51.010;10.366;2023-03-01T11:13:30;16.17;;;11.23;;
14789;SDS011;7486;51.010;10.366;2023-03-01T11:16:15;15.63;;;10.43;;
14789;SDS011;7486;51.010;10.366;2023-03-01T11:22:13;14.93;;;9.90;;
14789;SDS011;7486;51.010;10.366;2023-03-01T11:25:04;15.27;;;9.70;;
14789;SDS011;7486;51.010;10.366;2023-03-01T11:27:55;13.50;;;9.90;;
14789;SDS011;7486;51.010;10.366;2023-03-01T11:30:47;13.30;;;10.63;;
14789;SDS011;7486;51.010;10.366;2023-03-01T11:34:13;15.03;;;11.17;;
14789;SDS011;7486;51.010;10.366;2023-03-01T11:37:01;14.23;;;10.60;;
14789;SDS011;7486;51.010;10.366;2023-03-01T11:46:06;16.27;;;11.90;;
14789;SDS011;7486;51.010;10.366;2023-03-01T12:07:06;15.70;;;11.33;;
14789;SDS011;7486;51.010;10.366;2023-03-01T12:13:18;15.27;;;11.33;;
14789;SDS011;7486;51.010;10.366;2023-03-01T12:28:08;13.77;;;9.50;;
14789;SDS011;7486;51.010;10.366;2023-03-01T12:31:08;12.40;;;9.33;;
14789;SDS011;7486;51.010;10.366;2023-03-01T12:37:25;14.60;;;10.73;;
14789;SDS011;7486;51.010;10.366;2023-03-01T12:51:51;12.60;;;9.43;;
14789;SDS011;7486;51.010;10.366;2023-03-01T12:54:43;11.40;;;8.93;;
14789;SDS011;7486;51.010;10.366;2023-03-01T12:57:36;11.70;;;9.27;;
14789;SDS011;7486;51.010;10.366;2023-03-01T13:03:30;14.43;;;10.43;;
14789;SDS011;7486;51.010;10.366;2023-03-01T13:15:42;13.57;;;9.93;;
14789;SDS011;7486;51.010;10.366;2023-03-01T13:18:28;13.27;;;9.73;;
14789;SDS011;7486;51.010;10.366;2023-03-01T13:21:23;13.47;;;9.97;;
14789;SDS011;7486;51.010;10.366;2023-03-01T13:24:25;14.03;;;10.07;;
14789;SDS011;7486;51.010;10.366;2023-03-01T13:30:02;14.17;;;11.13;;
14789;SDS011;7486;51.010;10.366;2023-03-01T13:32:48;14.90;;;10.13;;
14789;SDS011;7486;51.010;10.366;2023-03-01T13:35:41;14.00;;;9.67;;
14789;SDS011;7486;51.010;10.366;2023-03-01T13:44:30;11.93;;;8.83;;
14789;SDS011;7486;51.010;10.366;2023-03-01T13:47:19;11.47;;;8.90;;
14789;SDS011;7486;51.010;10.366;2023-03-01T13:50:15;12.50;;;8.57;;
14789;SDS011;7486;51.010;10.366;2023-03-01T13:53:04;12.90;;;8.73;;
14789;SDS011;7486;51.010;10.366;2023-03-01T13:55:58;11.00;;;8.13;;
14789;SDS011;7486;51.010;10.366;2023-03-01T13:58:49;11.03;;;8.40;;
14789;SDS011;7486;51.010;10.366;2023-03-01T14:01:52;11.20;;;8.20;;
14789;SDS011;7486;51.010;10.366;2023-03-01T14:04:40;9.93;;;7.93;;
14789;SDS011;7486;51.010;10.366;2023-03-01T14:07:27;10.53;;;8.23;;
14789;SDS011;7486;51.010;10.366;2023-03-01T14:10:13;9.70;;;8.07;;
14789;SDS011;7486;51.010;10.366;2023-03-01T14:25:16;10.47;;;7.73;;
14789;SDS011;7486;51.010;10.366;2023-03-01T14:34:20;10.60;;;7.70;;
14789;SDS011;7486;51.010;10.366;2023-03-01T14:37:11;11.10;;;7.90;;
14789;SDS011;7486;51.010;10.366;2023-03-01T14:40:03;9.53;;;7.03;;
14789;SDS011;7486;51.010;10.366;2023-03-01T14:42:50;9.67;;;7.20;;
14789;SDS011;7486;51.010;10.366;2023-03-01T14:45:36;9.30;;;7.60;;
14789;SDS011;7486;51.010;10.366;2023-03-01T14:48:22;9.10;;;7.10;;
14789;SDS011;7486;51.010;10.366;2023-03-01T14:51:09;9.63;;;7.17;;
14789;SDS011;7486;51.010;10.366;2023-03-01T14:53:57;10.63;;;6.87;;
14789;SDS011;7486;51.010;10.366;2023-03-01T14:56:44;10.90;;;8.00;;
14789;SDS011;7486;51.010;10.366;2023-03-01T14:59:32;10.57;;;7.20;;
14789;SDS011;7486;51.010;10.366;2023-03-01T15:02:19;11.07;;;7.63;;
14789;SDS011;7486;51.010;10.366;2023-03-01T15:05:08;10.77;;;7.60;;
14789;SDS011;7486;51.010;10.366;2023-03-01T15:07:54;9.63;;;7.60;;
14789;SDS011;7486;51.010;10.366;2023-03-01T15:10:54;10.67;;;8.00;;
14789;SDS011;7486;51.010;10.366;2023-03-01T15:13:41;9.03;;;6.67;;
14789;SDS011;7486;51.010;10.366;2023-03-01T15:16:31;11.37;;;8.60;;
14789;SDS011;7486;51.010;10.366;2023-03-01T15:19:18;13.13;;;8.10;;
14789;SDS011;7486;51.010;10.366;2023-03-01T15:22:04;11.70;;;8.03;;
14789;SDS011;7486;51.010;10.366;2023-03-01T15:24:49;11.67;;;8.13;;
14789;SDS011;7486;51.010;10.366;2023-03-01T15:27:35;12.07;;;8.50;;
14789;SDS011;7486;51.010;10.366;2023-03-01T15:30:22;10.83;;;7.57;;
14789;SDS011;7486;51.010;10.366;2023-03-01T15:36:04;9.57;;;7.20;;
14789;SDS011;7486;51.010;10.366;2023-03-01T15:48:05;9.53;;;7.17;;
14789;SDS011;7486;51.010;10.366;2023-03-01T15:51:02;12.37;;;7.60;;
14789;SDS011;7486;51.010;10.366;2023-03-01T15:53:49;9.37;;;7.20;;
14789;SDS011;7486;51.010;10.366;2023-03-01T15:56:38;9.80;;;7.63;;
14789;SDS011;7486;51.010;10.366;2023-03-01T15:59:23;10.07;;;7.30;;
14789;SDS011;7486;51.010;10.366;2023-03-01T16:02:10;10.17;;;7.23;;
14789;SDS011;7486;51.010;10.366;2023-03-01T16:04:56;9.73;;;7.53;;
14789;SDS011;7486;51.010;10.366;2023-03-01T16:07:42;9.87;;;7.20;;
14789;SDS011;7486;51.010;10.366;2023-03-01T16:10:27;8.70;;;7.10;;
14789;SDS011;7486;51.010;10.366;2023-03-01T16:13:13;9.80;;;7.13;;
14789;SDS011;7486;51.010;10.366;2023-03-01T16:15:58;9.07;;;7.37;;
14789;SDS011;7486;51.010;10.366;2023-03-01T16:18:46;9.40;;;7.07;;
14789;SDS011;7486;51.010;10.366;2023-03-01T16:21:31;10.60;;;8.27;;
14789;SDS011;7486;51.010;10.366;2023-03-01T16:24:17;10.17;;;7.03;;
14789;SDS011;7486;51.010;10.366;2023-03-01T16:27:06;9.50;;;7.00;;
14789;SDS011;7486;51.010;10.366;2023-03-01T16:29:51;8.63;;;6.97;;
14789;SDS011;7486;51.010;10.366;2023-03-01T16:32:40;11.43;;;7.63;;
14789;SDS011;7486;51.010;10.366;2023-03-01T16:35:26;9.83;;;7.10;;
14789;SDS011;7486;51.010;10.366;2023-03-01T16:38:12;11.53;;;8.07;;
14789;SDS011;7486;51.010;10.366;2023-03-01T16:40:57;11.00;;;7.80;;
14789;SDS011;7486;51.010;10.366;2023-03-01T16:43:43;10.40;;;7.63;;
14789;SDS011;7486;51.010;10.366;2023-03-01T16:46:29;11.70;;;7.37;;
14789;SDS011;7486;51.010;10.366;2023-03-01T16:49:14;10.50;;;7.90;;
14789;SDS011;7486;51.010;10.366;2023-03-01T16:52:00;10.17;;;7.70;;
14789;SDS011;7486;51.010;10.366;2023-03-01T16:54:45;10.27;;;7.33;;
14789;SDS011;7486;51.010;10.366;2023-03-01T16:57:33;9.43;;;7.63;;
14789;SDS011;7486;51.010;10.366;2023-03-01T17:00:19;9.87;;;8.23;;
14789;SDS011;7486;51.010;10.366;2023-03-01T17:03:06;11.30;;;7.87;;
14789;SDS011;7486;51.010;10.366;2023-03-01T17:05:52;9.63;;;6.97;;
14789;SDS011;7486;51.010;10.366;2023-03-01T17:08:38;9.03;;;7.17;;
14789;SDS011;7486;51.010;10.366;2023-03-01T17:11:25;10.90;;;7.53;;
14789;SDS011;7486;51.010;10.366;2023-03-01T17:14:11;9.37;;;7.20;;
14789;SDS011;7486;51.010;10.366;2023-03-01T17:16:56;10.63;;;7.60;;
14789;SDS011;7486;51.010;10.366;2023-03-01T17:19:43;10.73;;;7.47;;
14789;SDS011;7486;51.010;10.366;2023-03-01T17:22:29;9.70;;;7.50;;
14789;SDS011;7486;51.010;10.366;2023-03-01T17:25:14;9.60;;;7.40;;
14789;SDS011;7486;51.010;10.366;2023-03-01T17:36:25;10.93;;;7.67;;
14789;SDS011;7486;51.010;10.366;2023-03-01T17:39:37;9.97;;;7.30;;
14789;SDS011;7486;51.010;10.366;2023-03-01T17:42:24;11.23;;;7.57;;
14789;SDS011;7486;51.010;10.366;2023-03-01T17:45:10;10.77;;;8.00;;
14789;SDS011;7486;51.010;10.366;2023-03-01T17:47:56;11.47;;;8.00;;
14789;SDS011;7486;51.010;10.366;2023-03-01T17:50:41;10.50;;;7.47;;
14789;SDS011;7486;51.010;10.366;2023-03-01T17:53:27;11.13;;;7.83;;
14789;SDS011;7486;51.010;10.366;2023-03-01T17:56:12;12.50;;;8.70;;
14789;SDS011;7486;51.010;10.366;2023-03-01T17:58:59;11.47;;;8.27;;
14789;SDS011;7486;51.010;10.366;2023-03-01T18:01:45;12.80;;;8.40;;
14789;SDS011;7486;51.010;10.366;2023-03-01T18:04:32;11.07;;;7.97;;
14789;SDS011;7486;51.010;10.366;2023-03-01T18:07:17;10.23;;;8.20;;
14789;SDS011;7486;51.010;10.366;2023-03-01T18:10:03;13.00;;;7.80;;
14789;SDS011;7486;51.010;10.366;2023-03-01T18:12:50;11.37;;;8.90;;
14789;SDS011;7486;51.010;10.366;2023-03-01T18:15:36;12.70;;;8.93;;
14789;SDS011;7486;51.010;10.366;2023-03-01T18:18:22;12.30;;;9.03;;
14789;SDS011;7486;51.010;10.366;2023-03-01T18:21:07;12.27;;;8.60;;
14789;SDS011;7486;51.010;10.366;2023-03-01T18:23:53;13.87;;;8.87;;
14789;SDS011;7486;51.010;10.366;2023-03-01T18:26:39;11.53;;;8.93;;
14789;SDS011;7486;51.010;10.366;2023-03-01T18:29:24;12.93;;;9.07;;
14789;SDS011;7486;51.010;10.366;2023-03-01T18:32:11;12.17;;;8.93;;
14789;SDS011;7486;51.010;10.366;2023-03-01T18:34:58;12.90;;;9.17;;
14789;SDS011;7486;51.010;10.366;2023-03-01T18:37:45;13.00;;;8.73;;
14789;SDS011;7486;51.010;10.366;2023-03-01T18:40:31;13.00;;;9.03;;
14789;SDS011;7486;51.010;10.366;2023-03-01T18:43:16;12.50;;;9.07;;
14789;SDS011;7486;51.010;10.366;2023-03-01T18:46:02;13.30;;;9.40;;
14789;SDS011;7486;51.010;10.366;2023-03-01T18:48:47;12.83;;;9.30;;
14789;SDS011;7486;51.010;10.366;2023-03-01T18:51:33;13.03;;;9.43;;
14789;SDS011;7486;51.010;10.366;2023-03-01T18:54:19;15.13;;;9.03;;
14789;SDS011;7486;51.010;10.366;2023-03-01T18:57:04;13.60;;;9.13;;